Time,TemperatureF,DewpointF,PressureIn,WindDirection,WindDirectionDegrees,WindSpeedMPH,WindSpeedGustMPH,Humidity,HourlyPrecipIn,Conditions,Clouds,dailyrainin,SoftwareType,DateUTC
2013-01-09 00:01:00,22.7,19.7,30.08,West,259,4.0,5.0,88,0.00,,,0.00,Wunderground v.1.15,2013-01-09 06:01:00,
2013-01-09 00:06:00,23.2,20.2,30.08,West,259,9.0,9.0,88,0.00,,,0.00,Wunderground v.1.15,2013-01-09 06:06:00,
2013-01-09 00:11:00,24.0,21.0,30.08,West,260,8.0,8.0,88,0.00,,,0.00,Wunderground v.1.15,2013-01-09 06:11:00,
2013-01-09 00:16:00,24.3,21.3,30.08,West,259,10.0,11.0,88,0.00,,,0.00,Wunderground v.1.15,2013-01-09 06:16:00,
2013-01-09 00:22:00,24.7,21.7,30.08,WSW,258,9.0,9.0,88,0.00,,,0.00,Wunderground v.1.15,2013-01-09 06:22:00,
2013-01-09 00:27:00,24.9,21.8,30.08,WSW,255,6.0,10.0,88,0.00,,,0.00,Wunderground v.1.15,2013-01-09 06:27:00,
2013-01-09 00:32:00,25.2,22.1,30.09,West,259,8.0,8.0,88,0.00,,,0.00,Wunderground v.1.15,2013-01-09 06:32:00,
2013-01-09 00:37:00,25.2,22.1,30.09,WSW,254,7.0,8.0,88,0.00,,,0.00,Wunderground v.1.15,2013-01-09 06:37:00,
2013-01-09 00:42:00,25.2,21.9,30.09,WSW,252,6.0,7.0,87,0.00,,,0.00,Wunderground v.1.15,2013-01-09 06:42:00,
2013-01-09 00:48:00,25.2,22.1,30.09,West,259,9.0,9.0,88,0.00,,,0.00,Wunderground v.1.15,2013-01-09 06:48:00,
2013-01-09 00:53:00,25.2,22.1,30.10,West,262,11.0,12.0,88,0.00,,,0.00,Wunderground v.1.15,2013-01-09 06:53:00,
2013-01-09 00:59:00,25.6,22.5,30.10,West,263,9.0,12.0,88,0.00,,,0.00,Wunderground v.1.15,2013-01-09 06:59:00,
2013-01-09 01:05:00,26.0,22.9,30.10,West,267,11.0,13.0,88,0.00,,,0.00,Wunderground v.1.15,2013-01-09 07:05:00,
2013-01-09 01:10:00,26.0,22.9,30.10,NW,304,11.0,13.0,88,0.00,,,0.00,Wunderground v.1.15,2013-01-09 07:10:00,
2013-01-09 01:16:00,25.8,22.7,30.11,West,264,8.0,10.0,88,0.00,,,0.01,Wunderground v.1.15,2013-01-09 07:16:00,
2013-01-09 01:21:00,25.8,22.7,30.11,West,261,9.0,9.0,88,0.00,,,0.01,Wunderground v.1.15,2013-01-09 07:21:00,
2013-01-09 01:27:00,25.6,22.5,30.11,WSW,256,7.0,12.0,88,0.00,,,0.01,Wunderground v.1.15,2013-01-09 07:27:00,
2013-01-09 01:33:00,25.5,22.4,30.11,WSW,256,6.0,10.0,88,0.00,,,0.01,Wunderground v.1.15,2013-01-09 07:33:00,
2013-01-09 01:38:00,25.5,22.4,30.12,West,263,8.0,10.0,88,0.00,,,0.01,Wunderground v.1.15,2013-01-09 07:38:00,
2013-01-09 01:45:00,25.1,22.0,30.12,West,261,7.0,8.0,88,0.00,,,0.01,Wunderground v.1.15,2013-01-09 07:45:00,
2013-01-09 01:51:00,25.0,21.9,30.12,West,262,7.0,8.0,88,0.00,,,0.01,Wunderground v.1.15,2013-01-09 07:51:00,
2013-01-09 01:56:00,25.8,23.0,30.12,West,269,8.0,9.0,89,0.00,,,0.01,Wunderground v.1.15,2013-01-09 07:56:00,
2013-01-09 02:01:00,26.1,23.0,30.13,West,272,10.0,10.0,88,0.00,,,0.01,Wunderground v.1.15,2013-01-09 08:01:00,
2013-01-09 02:07:00,26.4,23.6,30.13,West,269,9.0,12.0,89,0.00,,,0.01,Wunderground v.1.15,2013-01-09 08:07:00,
2013-01-09 02:12:00,26.6,23.8,30.13,West,267,9.0,10.0,89,0.00,,,0.01,Wunderground v.1.15,2013-01-09 08:12:00,
2013-01-09 02:17:00,26.6,23.5,30.13,West,269,12.0,12.0,88,0.00,,,0.01,Wunderground v.1.15,2013-01-09 08:17:00,
2013-01-09 02:22:00,26.5,23.7,30.14,West,266,6.0,9.0,89,0.00,,,0.01,Wunderground v.1.15,2013-01-09 08:22:00,
2013-01-09 02:27:00,26.3,23.2,30.14,West,265,8.0,11.0,88,0.00,,,0.01,Wunderground v.1.15,2013-01-09 08:27:00,
2013-01-09 02:32:00,26.3,23.5,30.14,West,265,10.0,11.0,89,0.00,,,0.01,Wunderground v.1.15,2013-01-09 08:32:00,
2013-01-09 02:37:00,26.2,23.1,30.14,West,262,10.0,11.0,88,0.00,,,0.01,Wunderground v.1.15,2013-01-09 08:37:00,
2013-01-09 02:42:00,25.9,22.8,30.14,West,271,11.0,11.0,88,0.00,,,0.01,Wunderground v.1.15,2013-01-09 08:42:00,
2013-01-09 02:47:00,26.6,23.8,30.15,West,263,12.0,14.0,89,0.00,,,0.01,Wunderground v.1.15,2013-01-09 08:47:00,
2013-01-09 02:52:00,26.3,23.2,30.15,West,261,11.0,11.0,88,0.00,,,0.01,Wunderground v.1.15,2013-01-09 08:52:00,
2013-01-09 02:57:00,25.9,23.1,30.15,West,269,11.0,13.0,89,0.00,,,0.01,Wunderground v.1.15,2013-01-09 08:57:00,
2013-01-09 03:02:00,26.3,23.5,30.15,West,272,9.0,11.0,89,0.00,,,0.01,Wunderground v.1.15,2013-01-09 09:02:00,
2013-01-09 03:07:00,26.3,23.5,30.16,West,269,8.0,11.0,89,0.00,,,0.01,Wunderground v.1.15,2013-01-09 09:07:00,
2013-01-09 03:12:00,25.4,22.3,30.15,West,268,8.0,10.0,88,0.00,,,0.01,Wunderground v.1.15,2013-01-09 09:12:00,
2013-01-09 03:17:00,25.5,22.4,30.15,West,267,7.0,10.0,88,0.00,,,0.01,Wunderground v.1.15,2013-01-09 09:17:00,
2013-01-09 03:23:00,26.2,23.4,30.15,West,267,9.0,10.0,89,0.00,,,0.01,Wunderground v.1.15,2013-01-09 09:23:00,
2013-01-09 03:28:00,27.6,24.8,30.15,West,272,13.0,15.0,89,0.00,,,0.01,Wunderground v.1.15,2013-01-09 09:28:00,
2013-01-09 03:34:00,28.7,25.9,30.15,West,275,14.0,19.0,89,0.00,,,0.01,Wunderground v.1.15,2013-01-09 09:34:00,
2013-01-09 03:39:00,29.3,26.5,30.15,West,271,21.0,21.0,89,0.00,,,0.01,Wunderground v.1.15,2013-01-09 09:39:00,
2013-01-09 03:45:00,29.3,26.2,30.16,West,277,18.0,21.0,88,0.00,,,0.01,Wunderground v.1.15,2013-01-09 09:45:00,
2013-01-09 03:51:00,29.2,26.1,30.16,West,279,12.0,15.0,88,0.00,,,0.01,Wunderground v.1.15,2013-01-09 09:51:00,
2013-01-09 03:56:00,28.9,25.5,30.16,West,272,11.0,18.0,87,0.00,,,0.01,Wunderground v.1.15,2013-01-09 09:56:00,
2013-01-09 04:02:00,28.4,25.0,30.17,West,277,8.0,12.0,87,0.00,,,0.01,Wunderground v.1.15,2013-01-09 10:02:00,
2013-01-09 04:07:00,28.8,25.7,30.17,West,281,9.0,17.0,88,0.00,,,0.01,Wunderground v.1.15,2013-01-09 10:07:00,
2013-01-09 04:12:00,29.3,25.9,30.17,WSW,258,11.0,15.0,87,0.00,,,0.01,Wunderground v.1.15,2013-01-09 10:12:00,
2013-01-09 04:17:00,29.3,25.9,30.17,WSW,246,11.0,15.0,87,0.00,,,0.01,Wunderground v.1.15,2013-01-09 10:17:00,
2013-01-09 04:22:00,29.8,26.4,30.17,West,260,16.0,20.0,87,0.00,,,0.01,Wunderground v.1.15,2013-01-09 10:22:00,
2013-01-09 04:28:00,29.8,26.4,30.17,WNW,283,13.0,20.0,87,0.00,,,0.01,Wunderground v.1.15,2013-01-09 10:28:00,
2013-01-09 04:33:00,29.5,25.8,30.17,WNW,286,14.0,14.0,86,0.00,,,0.01,Wunderground v.1.15,2013-01-09 10:33:00,
2013-01-09 04:39:00,29.5,26.1,30.18,West,281,10.0,17.0,87,0.00,,,0.01,Wunderground v.1.15,2013-01-09 10:39:00,
2013-01-09 04:44:00,29.7,26.3,30.18,WNW,286,11.0,17.0,87,0.00,,,0.01,Wunderground v.1.15,2013-01-09 10:44:00,
2013-01-09 04:50:00,29.8,26.1,30.18,WNW,286,10.0,17.0,86,0.00,,,0.01,Wunderground v.1.15,2013-01-09 10:50:00,
2013-01-09 04:55:00,29.5,25.8,30.18,WNW,283,13.0,13.0,86,0.00,,,0.01,Wunderground v.1.15,2013-01-09 10:55:00,
2013-01-09 05:01:00,29.4,25.7,30.18,WNW,285,12.0,12.0,86,0.00,,,0.01,Wunderground v.1.15,2013-01-09 11:01:00,
2013-01-09 05:06:00,29.4,25.7,30.18,West,276,14.0,17.0,86,0.00,,,0.01,Wunderground v.1.15,2013-01-09 11:06:00,
2013-01-09 05:12:00,29.4,25.4,30.18,West,280,12.0,12.0,85,0.00,,,0.01,Wunderground v.1.15,2013-01-09 11:12:00,
2013-01-09 05:17:00,29.2,25.3,30.18,WNW,287,12.0,14.0,85,0.00,,,0.01,Wunderground v.1.15,2013-01-09 11:17:00,
2013-01-09 05:22:00,29.1,25.2,30.18,WNW,282,9.0,11.0,85,0.00,,,0.01,Wunderground v.1.15,2013-01-09 11:22:00,
2013-01-09 05:27:00,28.8,24.6,30.19,WNW,286,8.0,12.0,84,0.00,,,0.01,Wunderground v.1.15,2013-01-09 11:27:00,
2013-01-09 05:32:00,28.5,24.3,30.18,WNW,284,6.0,9.0,84,0.00,,,0.01,Wunderground v.1.15,2013-01-09 11:32:00,
2013-01-09 05:38:00,28.4,24.2,30.19,WNW,292,8.0,11.0,84,0.00,,,0.01,Wunderground v.1.15,2013-01-09 11:38:00,
2013-01-09 05:43:00,28.1,23.9,30.19,WNW,290,10.0,13.0,84,0.00,,,0.01,Wunderground v.1.15,2013-01-09 11:43:00,
2013-01-09 05:49:00,27.7,23.5,30.19,WNW,286,8.0,13.0,84,0.00,,,0.01,Wunderground v.1.15,2013-01-09 11:49:00,
2013-01-09 05:54:00,27.7,23.5,30.19,WNW,284,11.0,13.0,84,0.00,,,0.01,Wunderground v.1.15,2013-01-09 11:54:00,
2013-01-09 05:59:00,27.7,23.5,30.19,West,275,10.0,13.0,84,0.00,,,0.01,Wunderground v.1.15,2013-01-09 11:59:00,
2013-01-09 06:04:00,27.9,23.7,30.19,West,274,11.0,16.0,84,0.00,,,0.01,Wunderground v.1.15,2013-01-09 12:04:00,
2013-01-09 06:09:00,27.5,23.0,30.19,West,272,11.0,16.0,83,0.00,,,0.01,Wunderground v.1.15,2013-01-09 12:09:00,
2013-01-09 06:15:00,27.2,22.7,30.19,West,276,12.0,14.0,83,0.00,,,0.01,Wunderground v.1.15,2013-01-09 12:15:00,
2013-01-09 06:21:00,27.5,23.3,30.20,West,281,12.0,12.0,84,0.00,,,0.01,Wunderground v.1.15,2013-01-09 12:21:00,
2013-01-09 06:26:00,27.7,23.2,30.19,WNW,286,7.0,15.0,83,0.00,,,0.01,Wunderground v.1.15,2013-01-09 12:26:00,
2013-01-09 06:31:00,27.4,22.9,30.19,WNW,288,9.0,12.0,83,0.00,,,0.01,Wunderground v.1.15,2013-01-09 12:31:00,
2013-01-09 06:36:00,27.4,22.9,30.19,WNW,291,8.0,13.0,83,0.00,,,0.01,Wunderground v.1.15,2013-01-09 12:36:00,
2013-01-09 06:42:00,26.9,22.1,30.20,WNW,291,8.0,10.0,82,0.00,,,0.01,Wunderground v.1.15,2013-01-09 12:42:00,
2013-01-09 06:47:00,26.4,21.7,30.20,WNW,290,9.0,12.0,82,0.00,,,0.01,Wunderground v.1.15,2013-01-09 12:47:00,
2013-01-09 06:52:00,26.3,21.8,30.21,WNW,290,5.0,8.0,83,0.00,,,0.01,Wunderground v.1.15,2013-01-09 12:52:00,
2013-01-09 06:57:00,25.9,21.2,30.21,WNW,290,6.0,9.0,82,0.00,,,0.01,Wunderground v.1.15,2013-01-09 12:57:00,
2013-01-09 07:02:00,25.7,21.3,30.21,WNW,290,6.0,9.0,83,0.00,,,0.01,Wunderground v.1.15,2013-01-09 13:02:00,
2013-01-09 07:08:00,25.5,21.1,30.20,WNW,290,7.0,9.0,83,0.00,,,0.01,Wunderground v.1.15,2013-01-09 13:08:00,
2013-01-09 07:13:00,25.2,20.8,30.20,WNW,290,7.0,9.0,83,0.00,,,0.01,Wunderground v.1.15,2013-01-09 13:13:00,
2013-01-09 07:18:00,24.8,20.4,30.20,WNW,290,6.0,9.0,83,0.00,,,0.01,Wunderground v.1.15,2013-01-09 13:18:00,
2013-01-09 07:24:00,24.2,19.8,30.20,WNW,289,6.0,8.0,83,0.00,,,0.01,Wunderground v.1.15,2013-01-09 13:24:00,
2013-01-09 07:30:00,24.0,19.6,30.21,WNW,289,7.0,8.0,83,0.00,,,0.01,Wunderground v.1.15,2013-01-09 13:30:00,
2013-01-09 07:36:00,24.3,20.2,30.21,WNW,288,5.0,9.0,84,0.00,,,0.01,Wunderground v.1.15,2013-01-09 13:36:00,
2013-01-09 07:41:00,24.0,19.6,30.21,WNW,288,5.0,6.0,83,0.00,,,0.01,Wunderground v.1.15,2013-01-09 13:41:00,
2013-01-09 07:47:00,22.9,18.5,30.22,WNW,288,6.0,6.0,83,0.00,,,0.01,Wunderground v.1.15,2013-01-09 13:47:00,
2013-01-09 07:52:00,22.4,18.0,30.23,WNW,288,3.0,6.0,83,0.00,,,0.01,Wunderground v.1.15,2013-01-09 13:52:00,
2013-01-09 07:57:00,22.4,18.3,30.24,WNW,288,2.0,7.0,84,0.00,,,0.01,Wunderground v.1.15,2013-01-09 13:57:00,
2013-01-09 08:02:00,22.3,18.2,30.24,WNW,288,7.0,7.0,84,0.00,,,0.01,Wunderground v.1.15,2013-01-09 14:02:00,
2013-01-09 08:07:00,22.2,18.1,30.24,WNW,288,4.0,7.0,84,0.00,,,0.01,Wunderground v.1.15,2013-01-09 14:07:00,
2013-01-09 08:12:00,22.3,18.2,30.24,WNW,288,5.0,6.0,84,0.00,,,0.01,Wunderground v.1.15,2013-01-09 14:12:00,
2013-01-09 08:17:00,21.7,17.6,30.23,WNW,288,3.0,6.0,84,0.00,,,0.01,Wunderground v.1.15,2013-01-09 14:17:00,
2013-01-09 08:22:00,21.0,16.9,30.23,WNW,288,4.0,6.0,84,0.00,,,0.01,Wunderground v.1.15,2013-01-09 14:22:00,
2013-01-09 08:27:00,20.7,16.6,30.23,WNW,288,4.0,6.0,84,0.00,,,0.01,Wunderground v.1.15,2013-01-09 14:27:00,
2013-01-09 08:33:00,21.2,17.4,30.23,WNW,288,6.0,6.0,85,0.00,,,0.01,Wunderground v.1.15,2013-01-09 14:33:00,
2013-01-09 08:38:00,22.5,18.9,30.23,WNW,288,6.0,7.0,86,0.00,,,0.01,Wunderground v.1.15,2013-01-09 14:38:00,
2013-01-09 08:43:00,24.0,20.4,30.24,WNW,288,7.0,9.0,86,0.00,,,0.01,Wunderground v.1.15,2013-01-09 14:43:00,
2013-01-09 08:48:00,24.8,20.9,30.24,WNW,288,6.0,9.0,85,0.00,,,0.01,Wunderground v.1.15,2013-01-09 14:48:00,
2013-01-09 08:54:00,24.9,20.8,30.24,WNW,289,5.0,7.0,84,0.00,,,0.01,Wunderground v.1.15,2013-01-09 14:54:00,
2013-01-09 09:00:00,24.8,20.4,30.25,WNW,289,1.0,7.0,83,0.00,,,0.01,Wunderground v.1.15,2013-01-09 15:00:00,
2013-01-09 09:05:00,25.1,20.7,30.26,WNW,288,3.0,4.0,83,0.00,,,0.01,Wunderground v.1.15,2013-01-09 15:05:00,
2013-01-09 09:10:00,25.7,21.0,30.27,WNW,289,4.0,4.0,82,0.00,,,0.01,Wunderground v.1.15,2013-01-09 15:10:00,
2013-01-09 09:16:00,25.8,20.8,30.28,WNW,289,4.0,7.0,81,0.00,,,0.01,Wunderground v.1.15,2013-01-09 15:16:00,
2013-01-09 09:22:00,26.2,21.2,30.29,WNW,289,6.0,6.0,81,0.00,,,0.01,Wunderground v.1.15,2013-01-09 15:22:00,
2013-01-09 09:27:00,26.7,21.4,30.29,WNW,288,8.0,8.0,80,0.00,,,0.01,Wunderground v.1.15,2013-01-09 15:27:00,
2013-01-09 09:32:00,26.5,20.9,30.30,WNW,284,7.0,7.0,79,0.00,,,0.01,Wunderground v.1.15,2013-01-09 15:32:00,
2013-01-09 09:37:00,26.4,20.8,30.31,West,263,9.0,9.0,79,0.00,,,0.01,Wunderground v.1.15,2013-01-09 15:37:00,
2013-01-09 09:42:00,26.2,20.6,30.31,SW,229,6.0,9.0,79,0.00,,,0.01,Wunderground v.1.15,2013-01-09 15:42:00,
2013-01-09 09:47:00,25.4,20.1,30.32,SSW,200,9.0,13.0,80,0.00,,,0.01,Wunderground v.1.15,2013-01-09 15:47:00,
2013-01-09 09:52:00,25.2,20.2,30.33,SSW,208,7.0,9.0,81,0.00,,,0.01,Wunderground v.1.15,2013-01-09 15:52:00,
2013-01-09 09:57:00,26.0,21.3,30.33,SW,227,10.0,11.0,82,0.00,,,0.01,Wunderground v.1.15,2013-01-09 15:57:00,
2013-01-09 10:02:00,26.3,21.6,30.33,SW,233,9.0,10.0,82,0.00,,,0.01,Wunderground v.1.15,2013-01-09 16:02:00,
2013-01-09 10:07:00,27.0,21.9,30.33,WSW,238,7.0,11.0,81,0.00,,,0.01,Wunderground v.1.15,2013-01-09 16:07:00,
2013-01-09 10:12:00,27.2,22.1,30.34,WSW,244,9.0,9.0,81,0.00,,,0.01,Wunderground v.1.15,2013-01-09 16:12:00,
2013-01-09 10:17:00,27.5,22.4,30.34,WSW,245,8.0,10.0,81,0.00,,,0.01,Wunderground v.1.15,2013-01-09 16:17:00,
2013-01-09 10:22:00,27.6,22.2,30.34,WSW,243,8.0,10.0,80,0.00,,,0.01,Wunderground v.1.15,2013-01-09 16:22:00,
2013-01-09 10:27:00,27.9,22.5,30.34,WSW,244,7.0,10.0,80,0.00,,,0.01,Wunderground v.1.15,2013-01-09 16:27:00,
2013-01-09 10:32:00,27.9,22.5,30.35,WSW,244,9.0,9.0,80,0.00,,,0.01,Wunderground v.1.15,2013-01-09 16:32:00,
2013-01-09 10:37:00,28.0,22.6,30.35,WSW,242,7.0,11.0,80,0.00,,,0.01,Wunderground v.1.15,2013-01-09 16:37:00,
2013-01-09 10:43:00,28.2,22.8,30.36,WSW,243,9.0,9.0,80,0.00,,,0.01,Wunderground v.1.15,2013-01-09 16:43:00,
2013-01-09 10:48:00,28.4,23.0,30.36,WSW,244,8.0,10.0,80,0.00,,,0.01,Wunderground v.1.15,2013-01-09 16:48:00,
2013-01-09 10:53:00,28.7,23.0,30.36,WSW,248,6.0,10.0,79,0.00,,,0.01,Wunderground v.1.15,2013-01-09 16:53:00,
2013-01-09 10:59:00,29.0,23.6,30.37,WSW,248,7.0,10.0,80,0.00,,,0.01,Wunderground v.1.15,2013-01-09 16:59:00,
2013-01-09 11:04:00,29.4,23.7,30.37,WSW,242,9.0,12.0,79,0.00,,,0.01,Wunderground v.1.15,2013-01-09 17:04:00,
2013-01-09 11:10:00,29.8,24.1,30.36,WSW,252,7.0,12.0,79,0.00,,,0.01,Wunderground v.1.15,2013-01-09 17:10:00,
2013-01-09 11:15:00,29.8,24.1,30.37,WSW,246,8.0,12.0,79,0.00,,,0.01,Wunderground v.1.15,2013-01-09 17:15:00,
2013-01-09 11:20:00,30.1,24.4,30.37,WSW,244,9.0,12.0,79,0.00,,,0.01,Wunderground v.1.15,2013-01-09 17:20:00,
2013-01-09 11:25:00,30.4,24.7,30.37,WSW,244,10.0,12.0,79,0.00,,,0.01,Wunderground v.1.15,2013-01-09 17:25:00,
2013-01-09 11:30:00,30.7,24.7,30.37,WSW,248,9.0,12.0,78,0.00,,,0.01,Wunderground v.1.15,2013-01-09 17:30:00,
2013-01-09 11:35:00,30.9,24.8,30.37,WSW,248,10.0,11.0,78,0.00,,,0.01,Wunderground v.1.15,2013-01-09 17:35:00,
2013-01-09 11:41:00,31.0,24.9,30.37,WSW,248,9.0,9.0,78,0.00,,,0.01,Wunderground v.1.15,2013-01-09 17:41:00,
2013-01-09 11:46:00,31.2,25.1,30.38,SW,234,12.0,13.0,78,0.00,,,0.01,Wunderground v.1.15,2013-01-09 17:46:00,
2013-01-09 11:51:00,31.2,25.1,30.37,SW,236,9.0,9.0,78,0.00,,,0.01,Wunderground v.1.15,2013-01-09 17:51:00,
2013-01-09 11:57:00,31.4,25.3,30.38,SW,229,9.0,14.0,78,0.00,,,0.01,Wunderground v.1.15,2013-01-09 17:57:00,
2013-01-09 12:02:00,31.2,25.4,30.38,SW,233,11.0,15.0,79,0.00,,,0.01,Wunderground v.1.15,2013-01-09 18:02:00,
2013-01-09 12:07:00,31.3,25.5,30.38,SW,226,10.0,15.0,79,0.00,,,0.01,Wunderground v.1.15,2013-01-09 18:07:00,
2013-01-09 12:12:00,31.5,26.0,30.38,SW,223,9.0,10.0,80,0.00,,,0.01,Wunderground v.1.15,2013-01-09 18:12:00,
2013-01-09 12:17:00,31.9,26.1,30.38,SW,225,8.0,10.0,79,0.00,,,0.01,Wunderground v.1.15,2013-01-09 18:17:00,
2013-01-09 12:22:00,32.0,26.2,30.39,SW,221,9.0,11.0,79,0.00,,,0.01,Wunderground v.1.15,2013-01-09 18:22:00,
2013-01-09 12:27:00,32.4,26.9,30.38,SW,222,7.0,11.0,80,0.00,,,0.01,Wunderground v.1.15,2013-01-09 18:27:00,
2013-01-09 12:32:00,32.8,27.0,30.38,SW,225,5.0,10.0,79,0.00,,,0.01,Wunderground v.1.15,2013-01-09 18:32:00,
2013-01-09 12:37:00,32.8,26.7,30.38,WSW,241,10.0,13.0,78,0.00,,,0.01,Wunderground v.1.15,2013-01-09 18:37:00,
2013-01-09 12:41:00,32.7,26.6,30.38,SW,225,11.0,11.0,78,0.00,,,0.01,Wunderground v.1.15,2013-01-09 18:41:00,
2013-01-09 12:42:00,32.7,26.6,30.38,SW,225,9.0,12.0,78,0.00,,,0.01,Wunderground v.1.15,2013-01-09 18:42:00,
2013-01-09 12:44:00,32.7,26.6,30.38,SW,226,11.0,12.0,78,0.00,,,0.01,Wunderground v.1.15,2013-01-09 18:44:00,
2013-01-09 12:48:00,32.9,26.8,30.39,SW,225,8.0,12.0,78,0.00,,,0.01,Wunderground v.1.15,2013-01-09 18:48:00,
2013-01-09 12:49:00,32.9,26.8,30.39,SW,223,9.0,12.0,78,0.00,,,0.01,Wunderground v.1.15,2013-01-09 18:49:00,
2013-01-09 12:54:00,33.0,27.2,30.39,SW,219,11.0,11.0,79,0.00,,,0.01,Wunderground v.1.15,2013-01-09 18:54:00,
2013-01-09 12:59:00,33.4,27.3,30.38,SW,219,11.0,15.0,78,0.00,,,0.01,Wunderground v.1.15,2013-01-09 18:59:00,
2013-01-09 13:05:00,33.7,27.6,30.38,SW,228,10.0,14.0,78,0.00,,,0.01,Wunderground v.1.15,2013-01-09 19:05:00,
2013-01-09 13:10:00,33.9,27.8,30.38,SW,226,9.0,9.0,78,0.00,,,0.01,Wunderground v.1.15,2013-01-09 19:10:00,
2013-01-09 13:15:00,34.2,28.1,30.38,SW,227,8.0,10.0,78,0.00,,,0.01,Wunderground v.1.15,2013-01-09 19:15:00,
2013-01-09 13:22:00,34.1,27.6,30.38,SW,219,9.0,9.0,77,0.00,,,0.01,Wunderground v.1.15,2013-01-09 19:22:00,
2013-01-09 13:27:00,34.1,28.0,30.38,SW,219,10.0,11.0,78,0.00,,,0.01,Wunderground v.1.15,2013-01-09 19:27:00,
2013-01-09 13:32:00,34.4,28.2,30.38,SW,222,10.0,10.0,78,0.00,,,0.01,Wunderground v.1.15,2013-01-09 19:32:00,
2013-01-09 13:37:00,34.4,28.2,30.37,SW,225,8.0,10.0,78,0.00,,,0.01,Wunderground v.1.15,2013-01-09 19:37:00,
2013-01-09 13:43:00,34.7,28.5,30.37,SW,225,6.0,7.0,78,0.00,,,0.01,Wunderground v.1.15,2013-01-09 19:43:00,
2013-01-09 13:48:00,34.8,28.3,30.37,SW,225,4.0,7.0,77,0.00,,,0.01,Wunderground v.1.15,2013-01-09 19:48:00,
2013-01-09 13:53:00,35.0,28.5,30.36,SW,225,5.0,6.0,77,0.00,,,0.01,Wunderground v.1.15,2013-01-09 19:53:00,
2013-01-09 13:58:00,34.4,27.9,30.39,SSW,195,9.0,17.0,77,0.00,,,0.01,Wunderground v.1.15,2013-01-09 19:58:00,
2013-01-09 14:04:00,34.4,28.2,30.38,SSW,194,4.0,11.0,78,0.00,,,0.01,Wunderground v.1.15,2013-01-09 20:04:00,
2013-01-09 14:09:00,34.4,27.9,30.38,SSW,194,6.0,11.0,77,0.00,,,0.01,Wunderground v.1.15,2013-01-09 20:09:00,
2013-01-09 14:14:00,34.4,27.9,30.37,SSW,194,5.0,7.0,77,0.00,,,0.01,Wunderground v.1.15,2013-01-09 20:14:00,
2013-01-09 14:19:00,34.8,28.3,30.36,SSW,195,5.0,7.0,77,0.00,,,0.01,Wunderground v.1.15,2013-01-09 20:19:00,
2013-01-09 14:24:00,35.1,28.3,30.36,SSW,196,6.0,7.0,76,0.00,,,0.01,Wunderground v.1.15,2013-01-09 20:24:00,
2013-01-09 14:29:00,35.5,28.4,30.36,SSW,196,2.0,7.0,75,0.00,,,0.01,Wunderground v.1.15,2013-01-09 20:29:00,
2013-01-09 14:34:00,35.9,28.4,30.35,SSW,196,0.0,4.0,74,0.00,,,0.01,Wunderground v.1.15,2013-01-09 20:34:00,
2013-01-09 14:39:00,36.1,28.3,30.35,SSW,196,0.0,4.0,73,0.00,,,0.01,Wunderground v.1.15,2013-01-09 20:39:00,
2013-01-09 14:45:00,36.7,28.5,30.35,SSW,196,0.0,0.0,72,0.00,,,0.01,Wunderground v.1.15,2013-01-09 20:45:00,
2013-01-09 14:51:00,37.7,29.1,30.35,SSW,196,0.0,0.0,71,0.00,,,0.01,Wunderground v.1.15,2013-01-09 20:51:00,
2013-01-09 15:15:00,35.7,27.6,30.35,SSW,195,0.0,3.0,72,0.00,,,0.01,Wunderground v.1.15,2013-01-09 21:15:00,
2013-01-09 15:20:00,35.8,27.7,30.35,SSW,195,1.0,3.0,72,0.00,,,0.01,Wunderground v.1.15,2013-01-09 21:20:00,
2013-01-09 15:25:00,35.7,27.6,30.35,SSW,195,3.0,4.0,72,0.00,,,0.01,Wunderground v.1.15,2013-01-09 21:25:00,
2013-01-09 15:30:00,35.5,27.4,30.35,SSW,196,0.0,4.0,72,0.00,,,0.01,Wunderground v.1.15,2013-01-09 21:30:00,
2013-01-09 15:37:00,35.4,27.6,30.35,SSW,195,1.0,3.0,73,0.00,,,0.01,Wunderground v.1.15,2013-01-09 21:37:00,
2013-01-09 15:42:00,35.2,27.4,30.34,SSW,196,2.0,2.0,73,0.00,,,0.01,Wunderground v.1.15,2013-01-09 21:42:00,
2013-01-09 15:47:00,35.0,27.2,30.34,SSW,195,2.0,4.0,73,0.00,,,0.01,Wunderground v.1.15,2013-01-09 21:47:00,
2013-01-09 15:52:00,34.6,27.2,30.34,SSW,195,3.0,3.0,74,0.00,,,0.01,Wunderground v.1.15,2013-01-09 21:52:00,
2013-01-09 15:57:00,34.1,27.0,30.34,SSW,196,4.0,5.0,75,0.00,,,0.01,Wunderground v.1.15,2013-01-09 21:57:00,
2013-01-09 16:03:00,33.8,27.0,30.34,SSW,195,2.0,4.0,76,0.00,,,0.01,Wunderground v.1.15,2013-01-09 22:03:00,
2013-01-09 16:08:00,33.7,26.9,30.34,SSW,195,3.0,4.0,76,0.00,,,0.01,Wunderground v.1.15,2013-01-09 22:08:00,
2013-01-09 16:13:00,33.7,26.9,30.34,SSW,196,4.0,5.0,76,0.00,,,0.01,Wunderground v.1.15,2013-01-09 22:13:00,
2013-01-09 16:24:00,33.3,26.5,30.34,SSW,196,5.0,5.0,76,0.00,,,0.01,Wunderground v.1.15,2013-01-09 22:24:00,
2013-01-09 16:30:00,32.9,26.5,30.34,SSW,195,4.0,6.0,77,0.00,,,0.01,Wunderground v.1.15,2013-01-09 22:30:00,
2013-01-09 16:35:00,32.7,26.3,30.34,SSW,196,4.0,4.0,77,0.00,,,0.01,Wunderground v.1.15,2013-01-09 22:35:00,
2013-01-09 16:40:00,32.7,26.0,30.33,SSW,195,4.0,5.0,76,0.00,,,0.01,Wunderground v.1.15,2013-01-09 22:40:00,
2013-01-09 16:45:00,32.5,25.8,30.34,SSW,195,5.0,5.0,76,0.00,,,0.01,Wunderground v.1.15,2013-01-09 22:45:00,
2013-01-09 16:50:00,32.4,26.0,30.34,SSW,196,4.0,6.0,77,0.00,,,0.01,Wunderground v.1.15,2013-01-09 22:50:00,
2013-01-09 16:55:00,32.8,26.4,30.33,SSW,195,5.0,7.0,77,0.00,,,0.01,Wunderground v.1.15,2013-01-09 22:55:00,
2013-01-09 17:01:00,32.3,25.6,30.33,SSW,194,1.0,4.0,76,0.00,,,0.01,Wunderground v.1.15,2013-01-09 23:01:00,
2013-01-09 17:06:00,31.4,25.0,30.32,SSW,194,3.0,5.0,77,0.00,,,0.01,Wunderground v.1.15,2013-01-09 23:06:00,
2013-01-09 17:12:00,30.4,24.1,30.33,SSW,194,4.0,5.0,77,0.00,,,0.01,Wunderground v.1.15,2013-01-09 23:12:00,
2013-01-09 17:17:00,30.1,24.4,30.32,SSW,194,3.0,5.0,79,0.00,,,0.01,Wunderground v.1.15,2013-01-09 23:17:00,
2013-01-09 17:22:00,29.8,24.1,30.32,SSW,194,2.0,4.0,79,0.00,,,0.01,Wunderground v.1.15,2013-01-09 23:22:00,
2013-01-09 17:27:00,29.9,24.5,30.32,SSW,194,3.0,5.0,80,0.00,,,0.01,Wunderground v.1.15,2013-01-09 23:27:00,
2013-01-09 17:32:00,30.0,24.3,30.32,SSW,194,3.0,4.0,79,0.00,,,0.01,Wunderground v.1.15,2013-01-09 23:32:00,
2013-01-09 17:37:00,30.5,24.8,30.32,SSW,194,5.0,5.0,79,0.00,,,0.01,Wunderground v.1.15,2013-01-09 23:37:00,
2013-01-09 17:43:00,30.6,24.6,30.32,SSW,194,3.0,5.0,78,0.00,,,0.01,Wunderground v.1.15,2013-01-09 23:43:00,
2013-01-09 17:49:00,30.5,24.5,30.32,SSW,194,4.0,6.0,78,0.00,,,0.01,Wunderground v.1.15,2013-01-09 23:49:00,
2013-01-09 17:54:00,30.6,24.6,30.32,SSW,194,4.0,7.0,78,0.00,,,0.01,Wunderground v.1.15,2013-01-09 23:54:00,
2013-01-09 18:00:00,30.5,24.5,30.32,SSW,194,4.0,7.0,78,0.00,,,0.01,Wunderground v.1.15,2013-01-10 00:00:00,
2013-01-09 18:05:00,30.7,25.0,30.32,SSW,192,6.0,7.0,79,0.00,,,0.01,Wunderground v.1.15,2013-01-10 00:05:00,
2013-01-09 18:10:00,30.9,25.2,30.32,SSW,192,2.0,7.0,79,0.00,,,0.01,Wunderground v.1.15,2013-01-10 00:10:00,
2013-01-09 18:15:00,30.8,25.1,30.31,SSW,192,6.0,6.0,79,0.00,,,0.01,Wunderground v.1.15,2013-01-10 00:15:00,
2013-01-09 18:20:00,31.1,25.3,30.32,South,191,5.0,8.0,79,0.00,,,0.01,Wunderground v.1.15,2013-01-10 00:20:00,
2013-01-09 18:26:00,31.1,25.7,30.32,South,190,8.0,9.0,80,0.00,,,0.01,Wunderground v.1.15,2013-01-10 00:26:00,
2013-01-09 18:31:00,31.1,25.7,30.32,South,185,8.0,8.0,80,0.00,,,0.01,Wunderground v.1.15,2013-01-10 00:31:00,
2013-01-09 18:37:00,31.2,26.0,30.33,South,176,4.0,10.0,81,0.00,,,0.01,Wunderground v.1.15,2013-01-10 00:37:00,
2013-01-09 18:42:00,31.2,26.0,30.32,South,173,7.0,10.0,81,0.00,,,0.01,Wunderground v.1.15,2013-01-10 00:42:00,
2013-01-09 18:47:00,31.2,26.0,30.32,South,169,4.0,12.0,81,0.00,,,0.01,Wunderground v.1.15,2013-01-10 00:47:00,
2013-01-09 18:52:00,31.3,26.4,30.32,South,169,2.0,7.0,82,0.00,,,0.01,Wunderground v.1.15,2013-01-10 00:52:00,
2013-01-09 18:57:00,31.0,26.1,30.32,South,169,5.0,9.0,82,0.00,,,0.01,Wunderground v.1.15,2013-01-10 00:57:00,
2013-01-09 19:03:00,30.4,25.6,30.32,South,169,8.0,10.0,82,0.00,,,0.01,Wunderground v.1.15,2013-01-10 01:03:00,
2013-01-09 19:08:00,30.4,25.9,30.32,South,169,9.0,10.0,83,0.00,,,0.01,Wunderground v.1.15,2013-01-10 01:08:00,
2013-01-09 19:13:00,30.6,26.1,30.32,South,169,8.0,8.0,83,0.00,,,0.01,Wunderground v.1.15,2013-01-10 01:13:00,
2013-01-09 19:19:00,30.4,25.9,30.32,South,169,8.0,10.0,83,0.00,,,0.01,Wunderground v.1.15,2013-01-10 01:19:00,
2013-01-09 19:24:00,30.1,25.6,30.32,South,169,9.0,11.0,83,0.00,,,0.01,Wunderground v.1.15,2013-01-10 01:24:00,
2013-01-09 19:29:00,30.1,25.8,30.32,SSE,167,9.0,13.0,84,0.00,,,0.01,Wunderground v.1.15,2013-01-10 01:29:00,
2013-01-09 19:34:00,30.1,25.8,30.32,SSE,167,8.0,12.0,84,0.00,,,0.01,Wunderground v.1.15,2013-01-10 01:34:00,
2013-01-09 19:39:00,30.0,25.8,30.33,SSE,167,7.0,12.0,84,0.00,,,0.01,Wunderground v.1.15,2013-01-10 01:39:00,
2013-01-09 19:44:00,30.2,25.9,30.33,SSE,167,5.0,10.0,84,0.00,,,0.01,Wunderground v.1.15,2013-01-10 01:44:00,
2013-01-09 19:50:00,30.0,25.8,30.32,SSE,167,8.0,10.0,84,0.00,,,0.01,Wunderground v.1.15,2013-01-10 01:50:00,
2013-01-09 19:55:00,29.7,25.5,30.32,SSE,167,8.0,10.0,84,0.00,,,0.01,Wunderground v.1.15,2013-01-10 01:55:00,
2013-01-09 20:00:00,29.7,25.5,30.32,SSE,167,8.0,11.0,84,0.00,,,0.01,Wunderground v.1.15,2013-01-10 02:00:00,
2013-01-09 20:05:00,29.8,25.6,30.32,SSE,167,6.0,10.0,84,0.00,,,0.01,Wunderground v.1.15,2013-01-10 02:05:00,
2013-01-09 20:10:00,30.1,26.1,30.32,SSE,167,6.0,7.0,85,0.00,,,0.01,Wunderground v.1.15,2013-01-10 02:10:00,
2013-01-09 20:15:00,30.5,26.5,30.32,SSE,167,8.0,10.0,85,0.00,,,0.01,Wunderground v.1.15,2013-01-10 02:15:00,
2013-01-09 20:20:00,30.5,26.2,30.32,SSE,167,7.0,7.0,84,0.00,,,0.01,Wunderground v.1.15,2013-01-10 02:20:00,
2013-01-09 20:26:00,30.1,26.1,30.31,SSE,167,5.0,10.0,85,0.00,,,0.01,Wunderground v.1.15,2013-01-10 02:26:00,
2013-01-09 20:31:00,29.8,25.8,30.31,SSE,167,7.0,8.0,85,0.00,,,0.01,Wunderground v.1.15,2013-01-10 02:31:00,
2013-01-09 20:36:00,29.3,25.4,30.31,SSE,167,2.0,8.0,85,0.00,,,0.01,Wunderground v.1.15,2013-01-10 02:36:00,
2013-01-09 20:41:00,29.2,25.3,30.31,SSE,167,7.0,7.0,85,0.00,,,0.01,Wunderground v.1.15,2013-01-10 02:41:00,
2013-01-09 20:46:00,29.3,25.4,30.31,SSE,167,10.0,10.0,85,0.00,,,0.01,Wunderground v.1.15,2013-01-10 02:46:00,
2013-01-09 20:51:00,29.8,26.1,30.31,SSE,167,5.0,7.0,86,0.00,,,0.01,Wunderground v.1.15,2013-01-10 02:51:00,
2013-01-09 20:57:00,30.4,26.4,30.31,SSE,167,6.0,11.0,85,0.00,,,0.01,Wunderground v.1.15,2013-01-10 02:57:00,
2013-01-09 21:02:00,30.3,26.3,30.31,SSE,167,7.0,10.0,85,0.00,,,0.01,Wunderground v.1.15,2013-01-10 03:02:00,
2013-01-09 21:07:00,30.2,26.2,30.31,SSE,167,9.0,12.0,85,0.00,,,0.01,Wunderground v.1.15,2013-01-10 03:07:00,
2013-01-09 21:12:00,30.2,26.2,30.31,SSE,167,9.0,9.0,85,0.00,,,0.01,Wunderground v.1.15,2013-01-10 03:12:00,
2013-01-09 21:17:00,30.2,26.2,30.31,SSE,166,8.0,13.0,85,0.00,,,0.01,Wunderground v.1.15,2013-01-10 03:17:00,
2013-01-09 21:22:00,30.4,26.4,30.31,SSE,166,9.0,9.0,85,0.00,,,0.01,Wunderground v.1.15,2013-01-10 03:22:00,
2013-01-09 21:27:00,30.3,26.3,30.31,SSE,166,7.0,11.0,85,0.00,,,0.01,Wunderground v.1.15,2013-01-10 03:27:00,
2013-01-09 21:32:00,30.0,26.0,30.31,SSE,166,9.0,11.0,85,0.00,,,0.01,Wunderground v.1.15,2013-01-10 03:32:00,
2013-01-09 21:37:00,30.0,26.0,30.30,SSE,165,5.0,11.0,85,0.00,,,0.01,Wunderground v.1.15,2013-01-10 03:37:00,
2013-01-09 21:42:00,30.1,26.1,30.30,SSE,168,13.0,13.0,85,0.00,,,0.01,Wunderground v.1.15,2013-01-10 03:42:00,
2013-01-09 21:47:00,30.2,26.2,30.31,South,169,9.0,14.0,85,0.00,,,0.01,Wunderground v.1.15,2013-01-10 03:47:00,
2013-01-09 21:53:00,29.9,25.9,30.30,SSE,168,9.0,10.0,85,0.00,,,0.01,Wunderground v.1.15,2013-01-10 03:53:00,
2013-01-09 21:58:00,29.7,25.7,30.30,SSE,167,8.0,12.0,85,0.00,,,0.01,Wunderground v.1.15,2013-01-10 03:58:00,
2013-01-09 22:03:00,29.8,25.8,30.30,South,169,11.0,12.0,85,0.00,,,0.01,Wunderground v.1.15,2013-01-10 04:03:00,
2013-01-09 22:08:00,29.6,25.6,30.30,South,169,10.0,12.0,85,0.00,,,0.01,Wunderground v.1.15,2013-01-10 04:08:00,
2013-01-09 22:13:00,29.4,25.4,30.29,South,169,9.0,11.0,85,0.00,,,0.01,Wunderground v.1.15,2013-01-10 04:13:00,
2013-01-09 22:18:00,29.5,25.5,30.30,South,170,7.0,11.0,85,0.00,,,0.01,Wunderground v.1.15,2013-01-10 04:18:00,
2013-01-09 22:23:00,29.7,25.7,30.30,South,170,9.0,9.0,85,0.00,,,0.01,Wunderground v.1.15,2013-01-10 04:23:00,
2013-01-09 22:29:00,29.4,25.4,30.30,South,169,6.0,9.0,85,0.00,,,0.01,Wunderground v.1.15,2013-01-10 04:29:00,
2013-01-09 22:34:00,29.4,25.4,30.30,South,170,8.0,10.0,85,0.00,,,0.01,Wunderground v.1.15,2013-01-10 04:34:00,
2013-01-09 22:39:00,29.3,25.4,30.29,South,171,7.0,10.0,85,0.00,,,0.01,Wunderground v.1.15,2013-01-10 04:39:00,
2013-01-09 22:44:00,29.1,25.2,30.30,South,171,7.0,8.0,85,0.00,,,0.01,Wunderground v.1.15,2013-01-10 04:44:00,
2013-01-09 22:50:00,28.8,24.9,30.29,South,171,8.0,9.0,85,0.00,,,0.01,Wunderground v.1.15,2013-01-10 04:50:00,
2013-01-09 22:55:00,29.0,25.3,30.30,South,171,6.0,11.0,86,0.00,,,0.01,Wunderground v.1.15,2013-01-10 04:55:00,
2013-01-09 23:00:00,29.3,25.4,30.30,South,172,6.0,13.0,85,0.00,,,0.01,Wunderground v.1.15,2013-01-10 05:00:00,
2013-01-09 23:01:00,29.5,25.5,30.29,South,175,11.0,11.0,85,0.00,,,0.01,Wunderground v.1.15,2013-01-10 05:01:00,
2013-01-09 23:03:00,29.9,25.9,30.30,South,178,7.0,11.0,85,0.00,,,0.01,Wunderground v.1.15,2013-01-10 05:03:00,
2013-01-09 23:08:00,30.8,26.8,30.30,South,180,6.0,14.0,85,0.00,,,0.01,Wunderground v.1.15,2013-01-10 05:08:00,
2013-01-09 23:13:00,31.3,26.7,30.30,South,175,10.0,13.0,83,0.00,,,0.01,Wunderground v.1.15,2013-01-10 05:13:00,
2013-01-09 23:18:00,30.8,26.0,30.29,South,178,10.0,13.0,82,0.00,,,0.01,Wunderground v.1.15,2013-01-10 05:18:00,
2013-01-09 23:23:00,30.5,25.7,30.30,South,182,8.0,9.0,82,0.00,,,0.01,Wunderground v.1.15,2013-01-10 05:23:00,
2013-01-09 23:28:00,31.1,26.5,30.30,South,180,12.0,12.0,83,0.00,,,0.01,Wunderground v.1.15,2013-01-10 05:28:00,
2013-01-09 23:33:00,31.8,26.9,30.30,South,184,8.0,15.0,82,0.00,,,0.01,Wunderground v.1.15,2013-01-10 05:33:00,
2013-01-09 23:38:00,31.7,26.5,30.30,South,184,7.0,15.0,81,0.00,,,0.01,Wunderground v.1.15,2013-01-10 05:38:00,
2013-01-09 23:43:00,31.8,26.6,30.30,South,185,11.0,14.0,81,0.00,,,0.01,Wunderground v.1.15,2013-01-10 05:43:00,
2013-01-09 23:49:00,32.0,26.8,30.30,South,186,8.0,14.0,81,0.00,,,0.01,Wunderground v.1.15,2013-01-10 05:49:00,
2013-01-09 23:54:00,32.1,26.9,30.30,South,190,13.0,17.0,81,0.00,,,0.01,Wunderground v.1.15,2013-01-10 05:54:00,